Time;durP1;ratioP1;P1;durP2;ratioP2;P2;SDS_P1;SDS_P2;PMS_P1;PMS_P2;Temp;Humidity;BMP_temperature;BMP_pressure;BME280_temperature;BME280_humidity;BME280_pressure;Samples;Min_cycle;Max_cycle;Signal;HPM_P1;HPM_P2
2023/09/10 00:02:17;;;;;;;16.93;12.73;;;;;;;15.57;80.78;101106.03;4951897;28;20206;-70
2023/09/10 00:04:43;;;;;;;15.63;13.03;;;;;;;15.54;80.51;101100.63;4936309;28;20809;-70
2023/09/10 00:07:09;;;;;;;18.57;13.27;;;;;;;15.52;80.80;101105.53;4953841;28;20217;-70
2023/09/10 00:09:38;;;;;;;17.53;13.37;;;;;;;15.50;80.66;101113.84;4950861;28;20233;-70
2023/09/10 00:12:05;;;;;;;16.67;12.23;;;;;;;15.49;81.65;101111.53;4951241;28;20235;-70
2023/09/10 00:14:32;;;;;;;17.17;13.47;;;;;;;15.47;81.06;101113.78;4952486;28;21384;-71
2023/09/10 00:16:58;;;;;;;17.67;12.87;;;;;;;15.44;81.05;101111.78;4953295;28;20540;-70
2023/09/10 00:19:24;;;;;;;17.53;12.47;;;;;;;15.41;81.98;101107.94;4953526;28;20239;-70
2023/09/10 00:21:50;;;;;;;17.53;11.87;;;;;;;15.41;81.88;101107.16;4951806;28;20213;-70
2023/09/10 00:24:17;;;;;;;15.13;12.23;;;;;;;15.39;81.45;101106.72;4950191;28;20699;-70
2023/09/10 00:26:44;;;;;;;14.97;12.63;;;;;;;15.36;81.63;101102.13;4952980;28;20208;-70
2023/09/10 00:29:11;;;;;;;15.37;12.03;;;;;;;15.35;82.07;101105.88;4950457;28;20206;-70
2023/09/10 00:31:37;;;;;;;24.40;13.23;;;;;;;15.33;82.12;101105.44;4934971;28;20223;-70
2023/09/10 00:34:04;;;;;;;17.23;13.00;;;;;;;15.31;82.22;101105.00;4936510;28;20214;-69
2023/09/10 00:36:30;;;;;;;15.53;12.13;;;;;;;15.30;81.86;101106.09;4934788;28;20212;-70
2023/09/10 00:38:56;;;;;;;21.17;13.30;;;;;;;15.28;82.16;101105.69;4953054;28;20672;-70
2023/09/10 00:41:23;;;;;;;16.80;12.93;;;;;;;15.26;81.76;101100.69;4932692;28;20271;-70
2023/09/10 00:43:51;;;;;;;16.60;12.93;;;;;;;15.23;81.99;101098.75;4934233;28;20295;-69
2023/09/10 00:46:18;;;;;;;15.63;12.80;;;;;;;15.23;81.79;101101.41;4953114;28;22060;-70
2023/09/10 00:48:45;;;;;;;19.90;13.57;;;;;;;15.21;82.65;101100.19;4951245;28;20829;-70
2023/09/10 00:51:12;;;;;;;16.83;11.83;;;;;;;15.18;82.43;101096.34;4949668;28;20965;-72
2023/09/10 00:53:40;;;;;;;16.00;12.20;;;;;;;15.17;82.11;101097.44;4933978;28;20866;-70
2023/09/10 00:56:07;;;;;;;18.47;13.47;;;;;;;15.15;82.56;101090.91;4931501;28;20888;-70
2023/09/10 00:58:33;;;;;;;17.87;12.47;;;;;;;15.12;82.03;101086.28;4937866;28;20215;-70
2023/09/10 01:01:01;;;;;;;15.40;12.20;;;;;;;15.12;82.08;101096.94;4938122;28;20237;-70
2023/09/10 01:03:27;;;;;;;16.03;12.93;;;;;;;15.09;82.03;101092.28;4952916;28;20231;-70
2023/09/10 01:05:54;;;;;;;15.83;12.90;;;;;;;15.08;82.53;101091.53;4958595;28;21152;-71
2023/09/10 01:08:20;;;;;;;15.03;12.00;;;;;;;15.08;82.72;101093.41;4938516;28;20699;-71
2023/09/10 01:10:53;;;;;;;16.33;12.90;;;;;;;15.07;83.07;101094.53;4939084;28;20220;-71
2023/09/10 01:13:31;;;;;;;15.33;11.73;;;;;;;15.04;82.58;101085.34;4953643;28;20454;-70
2023/09/10 01:16:05;;;;;;;14.67;11.63;;;;;;;15.03;82.86;101086.47;4954685;28;20884;-71
2023/09/10 01:18:42;;;;;;;13.80;12.03;;;;;;;15.04;83.24;101095.97;4930733;28;21629;-70
2023/09/10 01:21:38;;;;;;;17.67;13.23;;;;;;;15.01;82.80;101088.66;4955244;28;20231;-70
2023/09/10 01:24:14;;;;;;;17.40;12.03;;;;;;;15.00;83.01;101091.69;4949261;28;20217;-69
2023/09/10 01:26:42;;;;;;;16.47;12.20;;;;;;;15.01;83.54;101085.25;4938181;28;20213;-71
2023/09/10 01:29:13;;;;;;;14.63;12.03;;;;;;;15.00;83.96;101084.47;4937661;28;20223;-70
2023/09/10 01:31:43;;;;;;;15.97;11.90;;;;;;;14.99;83.36;101090.13;4956351;28;20789;-70
2023/09/10 01:34:12;;;;;;;16.20;13.53;;;;;;;14.96;83.33;101080.94;4955644;28;20569;-70
2023/09/10 01:36:42;;;;;;;14.77;12.33;;;;;;;14.94;83.22;101093.81;4950381;28;20209;-70
2023/09/10 01:39:16;;;;;;;17.37;12.23;;;;;;;14.94;83.82;101085.84;4955213;28;20314;-70
2023/09/10 01:41:46;;;;;;;15.37;12.83;;;;;;;14.94;83.86;101093.03;4937906;28;20306;-70
2023/09/10 01:44:14;;;;;;;16.70;12.50;;;;;;;14.93;83.82;101086.19;4938094;28;20205;-70
2023/09/10 01:46:42;;;;;;;18.40;12.53;;;;;;;14.90;84.00;101087.63;4956531;28;20816;-71
2023/09/10 01:49:08;;;;;;;15.33;11.70;;;;;;;14.87;83.58;101088.34;4937257;28;20823;-71
2023/09/10 01:51:35;;;;;;;16.90;12.47;;;;;;;14.86;83.54;101078.03;4936631;28;20301;-70
2023/09/10 01:54:02;;;;;;;14.27;11.83;;;;;;;14.86;83.90;101096.63;4937237;28;21280;-70
2023/09/10 01:56:28;;;;;;;14.93;12.00;;;;;;;14.83;83.98;101100.75;4937688;28;20213;-71
2023/09/10 01:58:56;;;;;;;16.03;12.07;;;;;;;14.82;84.50;101096.56;4938234;28;20217;-71
2023/09/10 02:01:22;;;;;;;15.17;12.27;;;;;;;14.81;83.73;101102.22;4937096;28;20229;-70
2023/09/10 02:03:48;;;;;;;16.70;11.77;;;;;;;14.79;84.50;101097.22;4938657;28;20218;-71
2023/09/10 02:06:15;;;;;;;16.30;12.30;;;;;;;14.78;85.11;101100.22;4935685;28;20207;-70
2023/09/10 02:08:41;;;;;;;15.60;12.10;;;;;;;14.76;84.84;101103.22;4937129;28;20220;-70
2023/09/10 02:11:07;;;;;;;17.43;13.00;;;;;;;14.72;84.62;101102.38;4952525;28;20229;-70
2023/09/10 02:13:34;;;;;;;16.40;12.20;;;;;;;14.71;84.47;101105.34;4956829;28;20224;-71
2023/09/10 02:16:02;;;;;;;17.97;12.40;;;;;;;14.68;84.65;101096.19;4954245;28;20610;-69
2023/09/10 02:18:29;;;;;;;17.83;11.97;;;;;;;14.67;84.86;101094.63;4937727;28;21237;-70
2023/09/10 02:20:55;;;;;;;16.07;12.23;;;;;;;14.65;84.80;101099.50;4937535;28;20225;-70
2023/09/10 02:23:21;;;;;;;15.87;12.47;;;;;;;14.62;85.06;101104.72;4935933;28;20221;-70
2023/09/10 02:25:48;;;;;;;15.53;12.20;;;;;;;14.61;84.83;101095.22;4952394;28;20211;-70
2023/09/10 02:28:14;;;;;;;15.10;11.73;;;;;;;14.55;85.06;101097.34;4937759;28;20429;-70
2023/09/10 02:30:41;;;;;;;18.40;12.53;;;;;;;14.53;84.83;101099.56;4936613;28;20852;-70
2023/09/10 02:33:09;;;;;;;17.77;13.17;;;;;;;14.51;84.80;101103.66;4936660;28;20225;-71
2023/09/10 02:35:35;;;;;;;15.93;11.90;;;;;;;14.49;85.01;101101.34;4953880;28;20386;-70
2023/09/10 02:38:02;;;;;;;15.83;11.37;;;;;;;14.46;85.55;101101.25;4937471;28;20678;-70
2023/09/10 02:40:29;;;;;;;16.33;11.43;;;;;;;14.43;85.77;101102.69;4938155;28;20855;-70
2023/09/10 02:42:55;;;;;;;13.70;11.13;;;;;;;14.41;85.70;101101.50;4937738;28;20215;-71
2023/09/10 02:45:22;;;;;;;16.27;11.00;;;;;;;14.38;85.72;101099.53;4934590;28;20939;-71
2023/09/10 02:47:48;;;;;;;19.50;11.23;;;;;;;14.34;85.47;101101.31;4936450;28;20860;-69
2023/09/10 02:50:16;;;;;;;13.57;11.10;;;;;;;14.32;85.63;101109.59;4935170;28;20240;-70
2023/09/10 02:52:42;;;;;;;15.73;12.17;;;;;;;14.30;85.85;101108.41;4938807;28;20226;-69
2023/09/10 02:55:09;;;;;;;16.60;12.20;;;;;;;14.27;85.82;101109.84;4938973;28;20316;-69
2023/09/10 02:57:35;;;;;;;13.87;11.50;;;;;;;14.25;86.11;101116.59;4936022;28;21215;-69
2023/09/10 03:00:05;;;;;;;19.77;12.53;;;;;;;14.23;85.74;101116.19;4934085;28;20236;-70
2023/09/10 03:02:31;;;;;;;15.97;11.20;;;;;;;14.20;86.46;101117.63;4934836;28;20231;-68
2023/09/10 03:04:57;;;;;;;16.33;11.53;;;;;;;14.18;85.64;101122.44;4936795;28;20233;-69
2023/09/10 03:07:25;;;;;;;14.57;11.57;;;;;;;14.19;86.52;101116.06;4936941;28;21188;-69
2023/09/10 03:09:52;;;;;;;18.03;11.97;;;;;;;14.15;85.98;101112.50;4937870;28;20618;-70
2023/09/10 03:12:26;;;;;;;16.67;12.27;;;;;;;14.14;85.93;101110.97;4934735;28;20215;-68
2023/09/10 03:14:54;;;;;;;20.70;11.63;;;;;;;14.12;86.20;101109.75;4935483;28;20221;-69
2023/09/10 03:17:22;;;;;;;17.73;12.07;;;;;;;14.10;86.71;101115.41;4934372;28;20215;-70
2023/09/10 03:19:49;;;;;;;15.40;12.33;;;;;;;14.07;86.51;101112.66;4936925;28;20316;-69
2023/09/10 03:22:16;;;;;;;14.87;11.87;;;;;;;14.07;86.25;101112.66;4930763;28;20270;-69
2023/09/10 03:24:44;;;;;;;13.07;11.67;;;;;;;14.03;85.71;101115.16;4935587;28;20214;-68
2023/09/10 03:27:10;;;;;;;15.00;11.50;;;;;;;14.02;86.48;101116.28;4953319;28;20206;-69
2023/09/10 03:29:37;;;;;;;15.47;12.07;;;;;;;14.01;86.59;101117.41;4953665;28;20237;-70
2023/09/10 03:32:06;;;;;;;15.77;11.63;;;;;;;14.01;87.15;101111.31;4938533;28;20336;-70
2023/09/10 03:34:32;;;;;;;15.30;12.07;;;;;;;14.00;87.32;101117.72;4939350;28;20339;-69
2023/09/10 03:36:59;;;;;;;17.03;12.27;;;;;;;13.99;86.92;101108.22;4938622;28;20231;-69
2023/09/10 03:39:26;;;;;;;14.70;12.37;;;;;;;13.95;86.81;101113.44;4954370;28;20236;-69
2023/09/10 03:41:53;;;;;;;16.00;12.30;;;;;;;13.96;86.65;101108.88;4936822;28;20449;-69
2023/09/10 03:44:20;;;;;;;15.53;11.93;;;;;;;13.94;86.58;101103.13;4937603;28;20216;-69
2023/09/10 03:46:47;;;;;;;14.97;12.17;;;;;;;13.95;87.27;101100.16;4937991;28;20212;-69
2023/09/10 03:49:14;;;;;;;16.70;12.50;;;;;;;13.96;87.83;101106.22;4937767;28;20309;-70
2023/09/10 03:51:40;;;;;;;14.70;12.20;;;;;;;13.92;87.52;101098.16;4936399;28;20539;-69
2023/09/10 03:54:07;;;;;;;16.07;12.50;;;;;;;13.93;87.49;101098.94;4938750;28;20285;-69
2023/09/10 03:56:34;;;;;;;17.87;12.93;;;;;;;13.92;87.18;101105.38;4935517;28;20207;-69
2023/09/10 03:59:01;;;;;;;14.57;12.07;;;;;;;13.89;87.34;101106.81;4939733;28;20216;-69
2023/09/10 04:01:29;;;;;;;14.47;12.33;;;;;;;13.89;87.32;101104.16;4934442;28;20709;-69
2023/09/10 04:03:55;;;;;;;16.30;11.93;;;;;;;13.88;86.83;101104.47;4938433;28;20210;-69
2023/09/10 04:06:22;;;;;;;15.60;11.77;;;;;;;13.88;87.07;101104.47;4936170;28;20218;-69
2023/09/10 04:08:48;;;;;;;17.57;12.73;;;;;;;13.84;87.22;101101.72;4954665;28;20221;-69
2023/09/10 04:11:14;;;;;;;16.17;12.77;;;;;;;13.84;87.22;101106.25;4951874;28;20232;-69
2023/09/10 04:13:41;;;;;;;15.80;12.37;;;;;;;13.81;87.45;101098.97;4938721;28;20542;-69
2023/09/10 04:16:08;;;;;;;15.47;11.90;;;;;;;13.80;87.49;101100.06;4938169;28;20293;-69
2023/09/10 04:18:35;;;;;;;17.10;11.37;;;;;;;13.78;87.48;101103.06;4937685;28;20217;-68
2023/09/10 04:21:03;;;;;;;12.80;10.80;;;;;;;13.77;87.90;101098.09;4956005;28;20681;-69
2023/09/10 04:23:30;;;;;;;14.30;11.70;;;;;;;13.77;88.16;101106.03;4937114;28;22230;-69
2023/09/10 04:25:56;;;;;;;14.50;11.17;;;;;;;13.78;88.30;101103.06;4938768;28;20220;-69
2023/09/10 04:28:22;;;;;;;15.17;12.10;;;;;;;13.78;88.70;101103.06;4937863;28;20216;-69
2023/09/10 04:30:49;;;;;;;16.43;11.00;;;;;;;13.77;88.80;101114.00;4953763;28;21183;-70
2023/09/10 04:33:17;;;;;;;12.90;9.83;;;;;;;13.73;88.33;101111.25;4939678;28;20216;-69
2023/09/10 04:35:49;;;;;;;12.70;10.80;;;;;;;13.68;87.63;101110.69;4940617;28;20221;-70
2023/09/10 04:38:17;;;;;;;12.57;10.17;;;;;;;13.67;87.72;101101.94;4939053;28;20207;-70
2023/09/10 04:40:43;;;;;;;11.63;9.97;;;;;;;13.66;87.65;101110.25;4958509;28;20801;-70
2023/09/10 04:43:10;;;;;;;12.67;9.67;;;;;;;13.67;87.94;101117.09;4938466;28;20225;-70
2023/09/10 04:45:37;;;;;;;12.40;10.77;;;;;;;13.66;88.39;101115.56;4940965;28;20237;-69
2023/09/10 04:48:04;;;;;;;14.07;10.93;;;;;;;13.67;88.28;101117.88;4952502;28;20211;-69
2023/09/10 04:50:33;;;;;;;13.23;11.27;;;;;;;13.68;88.48;101122.09;4938298;28;20807;-71
2023/09/10 04:53:00;;;;;;;13.13;11.13;;;;;;;13.68;88.19;101121.31;4940756;28;20476;-70
2023/09/10 04:55:27;;;;;;;14.60;11.33;;;;;;;13.71;88.50;101123.31;4938796;28;21629;-69
2023/09/10 04:57:53;;;;;;;14.70;11.50;;;;;;;13.70;88.41;101127.81;4941504;28;20427;-69
2023/09/10 05:00:19;;;;;;;14.77;11.47;;;;;;;13.72;88.43;101133.56;4938939;28;20851;-70
2023/09/10 05:02:47;;;;;;;14.30;10.77;;;;;;;13.73;88.52;101132.47;4938418;28;20230;-70
2023/09/10 05:05:14;;;;;;;15.97;10.60;;;;;;;13.74;88.50;101139.34;4941588;28;20711;-70
2023/09/10 05:07:42;;;;;;;15.00;10.77;;;;;;;13.77;88.97;101137.91;4938876;28;20339;-70
2023/09/10 05:10:11;;;;;;;14.00;10.90;;;;;;;13.77;88.86;101136.00;4938520;28;20231;-71
2023/09/10 05:12:37;;;;;;;12.23;10.10;;;;;;;13.81;88.88;101144.84;4938561;28;20627;-70
2023/09/10 05:15:04;;;;;;;14.60;10.80;;;;;;;13.82;88.53;101148.28;4939758;28;20222;-69
2023/09/10 05:17:31;;;;;;;16.20;11.00;;;;;;;13.84;88.56;101146.84;4936210;28;20213;-70
2023/09/10 05:19:57;;;;;;;12.83;10.20;;;;;;;13.88;88.69;101147.72;4941382;28;20476;-69
2023/09/10 05:22:23;;;;;;;15.67;10.87;;;;;;;13.89;88.25;101137.88;4926649;28;20222;-70
2023/09/10 05:24:51;;;;;;;15.37;12.03;;;;;;;13.95;88.47;101136.53;4939238;28;20221;-69
2023/09/10 05:27:17;;;;;;;14.23;10.40;;;;;;;13.97;88.60;101143.06;4938486;28;20821;-70
2023/09/10 05:29:44;;;;;;;14.37;11.87;;;;;;;13.99;88.22;101148.84;4950487;28;20231;-70
2023/09/10 05:32:11;;;;;;;14.37;11.17;;;;;;;14.04;88.60;101140.63;4939106;28;20828;-69
2023/09/10 05:34:37;;;;;;;13.77;11.50;;;;;;;14.08;88.49;101148.72;4937305;28;20809;-69
2023/09/10 05:37:04;;;;;;;12.57;10.87;;;;;;;14.13;88.48;101143.16;4939566;28;20208;-69
2023/09/10 05:39:30;;;;;;;12.60;10.93;;;;;;;14.18;88.41;101150.91;4939365;28;20361;-70
2023/09/10 05:41:58;;;;;;;16.07;11.17;;;;;;;14.21;88.39;101148.38;4938733;28;20238;-69
2023/09/10 05:44:24;;;;;;;14.27;10.67;;;;;;;14.27;88.37;101149.69;4929183;28;20220;-69
2023/09/10 05:46:51;;;;;;;14.13;11.27;;;;;;;14.33;88.60;101153.66;4938580;28;20367;-69
2023/09/10 05:49:17;;;;;;;15.63;11.20;;;;;;;14.38;88.14;101147.34;4938594;28;20225;-69
2023/09/10 05:51:44;;;;;;;21.37;12.20;;;;;;;14.43;88.24;101155.84;4935932;28;20556;-70
2023/09/10 05:54:11;;;;;;;19.40;12.43;;;;;;;14.49;88.30;101157.16;4939112;28;20212;-69
2023/09/10 05:56:37;;;;;;;16.63;12.87;;;;;;;14.58;88.59;101157.78;4937452;28;20208;-70
2023/09/10 05:59:06;;;;;;;17.90;14.37;;;;;;;14.66;88.85;101159.56;4940431;28;21162;-68
2023/09/10 06:01:33;;;;;;;16.03;14.00;;;;;;;14.74;88.49;101158.63;4935919;28;20211;-69
2023/09/10 06:03:59;;;;;;;17.80;14.07;;;;;;;14.83;88.31;101167.22;4938464;28;20212;-69
2023/09/10 06:06:28;;;;;;;16.97;13.60;;;;;;;14.93;88.22;101161.41;4951039;28;20209;-69
2023/09/10 06:08:55;;;;;;;19.70;15.00;;;;;;;15.04;88.10;101164.34;4938272;28;20212;-69
2023/09/10 06:11:22;;;;;;;19.37;15.73;;;;;;;15.14;87.79;101161.97;4939920;28;20231;-69
2023/09/10 06:13:48;;;;;;;20.53;15.90;;;;;;;15.26;88.13;101159.22;4938226;28;20209;-70
2023/09/10 06:16:16;;;;;;;23.50;15.90;;;;;;;15.38;87.38;101169.06;4937472;28;20244;-69
2023/09/10 06:18:43;;;;;;;22.93;16.37;;;;;;;15.50;86.54;101153.00;4936299;28;20641;-70
2023/09/10 06:21:09;;;;;;;19.20;15.30;;;;;;;15.61;86.17;101157.47;4936891;28;20403;-70
2023/09/10 06:23:35;;;;;;;18.40;15.57;;;;;;;15.73;86.72;101157.38;4938737;28;20240;-69
2023/09/10 06:26:02;;;;;;;25.03;14.93;;;;;;;15.86;87.03;101155.38;4940033;28;20217;-69
2023/09/10 06:28:28;;;;;;;19.07;15.03;;;;;;;15.97;85.61;101162.50;4937306;28;20207;-69
2023/09/10 06:30:55;;;;;;;15.83;13.13;;;;;;;16.11;85.85;101162.03;4935014;28;21995;-69
2023/09/10 06:33:23;;;;;;;15.50;13.60;;;;;;;16.23;85.71;101161.91;4935975;28;20307;-69
2023/09/10 06:35:50;;;;;;;15.03;13.37;;;;;;;16.35;85.55;101170.53;4937104;28;20804;-70
2023/09/10 06:38:16;;;;;;;15.23;13.47;;;;;;;16.49;85.39;101175.44;4937996;28;20231;-69
2023/09/10 06:40:43;;;;;;;19.67;13.47;;;;;;;16.59;85.25;101180.19;4953004;28;20995;-69
2023/09/10 06:43:09;;;;;;;15.73;13.13;;;;;;;16.70;84.87;101181.97;4936995;28;20238;-69
2023/09/10 06:45:51;;;;;;;14.30;12.53;;;;;;;16.83;84.59;101178.03;4934902;28;20746;-69
2023/09/10 06:48:18;;;;;;;13.43;11.83;;;;;;;16.96;84.78;101183.97;4954529;28;20204;-69
2023/09/10 06:50:46;;;;;;;13.87;11.60;;;;;;;17.09;84.68;101194.16;4935450;28;21553;-69
2023/09/10 06:53:12;;;;;;;13.40;11.60;;;;;;;17.21;83.98;101179.84;4954057;28;20209;-69
2023/09/10 06:55:38;;;;;;;13.20;11.40;;;;;;;17.34;84.03;101189.25;4951687;28;20710;-70
2023/09/10 06:58:05;;;;;;;14.53;11.67;;;;;;;17.44;83.29;101194.03;4949943;28;21161;-69
2023/09/10 07:00:31;;;;;;;16.10;11.60;;;;;;;17.57;83.30;101185.50;4952970;28;21293;-70
2023/09/10 07:02:58;;;;;;;14.87;11.10;;;;;;;17.66;83.09;101183.34;4952688;28;20221;-69
2023/09/10 07:05:25;;;;;;;12.83;10.57;;;;;;;17.80;81.62;101185.47;4955983;28;20244;-70
2023/09/10 07:07:53;;;;;;;10.90;9.80;;;;;;;17.90;81.89;101184.84;4948480;28;20253;-69
2023/09/10 07:10:19;;;;;;;12.53;10.80;;;;;;;18.01;81.54;101194.56;4951980;28;20311;-69
2023/09/10 07:12:46;;;;;;;12.80;10.80;;;;;;;18.17;81.39;101194.41;4952504;28;20205;-69
2023/09/10 07:15:12;;;;;;;12.77;10.60;;;;;;;18.28;80.81;101198.78;4954164;28;20748;-70
2023/09/10 07:17:38;;;;;;;11.43;10.23;;;;;;;18.39;80.59;101197.03;4955421;28;20529;-70
2023/09/10 07:20:06;;;;;;;18.07;9.97;;;;;;;18.52;80.16;101198.34;4952321;28;20239;-70
2023/09/10 07:22:32;;;;;;;11.30;9.67;;;;;;;18.62;80.16;101200.38;4953798;28;20221;-70
2023/09/10 07:25:00;;;;;;;12.23;9.90;;;;;;;18.74;79.80;101200.13;4950408;28;20209;-70
2023/09/10 07:27:26;;;;;;;10.90;9.17;;;;;;;18.88;79.35;101197.63;4951447;28;20208;-70
2023/09/10 07:29:52;;;;;;;12.67;9.30;;;;;;;19.02;78.60;101200.47;4953849;28;20991;-70
2023/09/10 07:32:18;;;;;;;10.70;8.60;;;;;;;19.17;77.09;101196.78;4934660;28;20231;-68
2023/09/10 07:34:45;;;;;;;10.70;8.70;;;;;;;19.28;76.59;101205.72;4950670;28;20205;-70
2023/09/10 07:37:11;;;;;;;11.10;8.47;;;;;;;19.42;75.81;101192.47;4935780;28;21850;-70
2023/09/10 07:39:37;;;;;;;12.07;8.60;;;;;;;19.59;75.54;101199.09;4954448;28;20267;-70
2023/09/10 07:42:05;;;;;;;9.60;8.27;;;;;;;19.69;74.51;101198.41;4949114;28;20286;-69
2023/09/10 07:44:32;;;;;;;9.40;8.23;;;;;;;19.83;74.39;101198.53;4955318;28;20213;-70
2023/09/10 07:46:58;;;;;;;9.87;8.10;;;;;;;19.91;74.39;101208.91;4952868;28;20232;-70
2023/09/10 07:49:24;;;;;;;8.90;8.00;;;;;;;20.03;74.05;101200.56;4948012;28;20244;-70
2023/09/10 07:51:50;;;;;;;9.13;7.57;;;;;;;20.15;73.63;101197.63;4951845;28;20302;-70
2023/09/10 07:54:17;;;;;;;8.83;7.93;;;;;;;20.28;72.69;101204.19;4936159;28;20216;-68
2023/09/10 07:56:45;;;;;;;9.57;8.00;;;;;;;20.42;72.65;101192.78;4952549;28;20205;-69
2023/09/10 07:59:13;;;;;;;10.03;7.67;;;;;;;20.54;71.65;101192.47;4953406;28;20462;-68
2023/09/10 08:01:40;;;;;;;14.73;8.23;;;;;;;20.67;71.11;101189.06;4950604;28;20563;-69
2023/09/10 08:04:06;;;;;;;9.57;7.53;;;;;;;20.75;71.86;101190.59;4952154;28;20347;-69
2023/09/10 08:06:33;;;;;;;8.90;7.90;;;;;;;20.88;70.71;101183.75;4948798;28;20208;-69
2023/09/10 08:08:59;;;;;;;11.20;8.20;;;;;;;21.04;69.63;101191.47;4951407;28;20204;-69
2023/09/10 08:11:26;;;;;;;13.90;9.23;;;;;;;21.13;69.73;101184.59;4953010;28;20216;-69
2023/09/10 08:13:52;;;;;;;11.00;8.23;;;;;;;21.23;69.80;101183.09;4950431;28;20259;-69
2023/09/10 08:16:20;;;;;;;10.47;7.93;;;;;;;21.34;69.13;101191.91;4950580;28;20590;-69
2023/09/10 08:18:47;;;;;;;12.77;7.73;;;;;;;21.45;69.02;101190.00;4947392;28;21691;-69
2023/09/10 08:21:13;;;;;;;10.17;7.37;;;;;;;21.54;68.82;101191.16;4949414;28;20839;-69
2023/09/10 08:23:40;;;;;;;10.07;7.77;;;;;;;21.66;66.97;101193.47;4953188;28;20235;-70
2023/09/10 08:26:06;;;;;;;8.53;7.40;;;;;;;21.78;65.40;101185.03;4933607;28;20209;-70
2023/09/10 08:28:32;;;;;;;9.87;6.83;;;;;;;21.88;67.43;101196.94;4950592;28;20204;-68
2023/09/10 08:30:59;;;;;;;9.97;7.27;;;;;;;21.97;67.67;101198.06;4946779;28;21164;-69
2023/09/10 08:33:27;;;;;;;9.53;7.77;;;;;;;22.07;65.65;101194.59;4948833;28;20211;-70
2023/09/10 08:35:54;;;;;;;8.60;7.47;;;;;;;22.17;65.58;101193.03;4935042;28;20212;-69
2023/09/10 08:38:21;;;;;;;10.33;7.33;;;;;;;22.30;65.53;101184.13;4951439;28;20658;-70
2023/09/10 08:40:59;;;;;;;9.43;7.00;;;;;;;22.40;63.45;101187.97;4950602;28;20595;-70
2023/09/10 08:43:36;;;;;;;9.27;7.00;;;;;;;22.51;62.41;101192.16;4949387;28;20751;-70
2023/09/10 08:46:08;;;;;;;8.30;7.40;;;;;;;22.65;63.58;101191.34;4951293;28;20219;-69
2023/09/10 08:48:39;;;;;;;11.07;7.43;;;;;;;22.73;63.69;101185.56;4946709;28;21293;-69
2023/09/10 08:51:07;;;;;;;9.33;7.10;;;;;;;22.83;64.46;101189.34;4950686;28;20227;-71
2023/09/10 08:53:34;;;;;;;9.70;7.07;;;;;;;22.95;62.75;101191.56;4951527;28;20205;-69
2023/09/10 08:56:01;;;;;;;8.15;6.75;;;;;;;23.03;62.09;101196.53;4948101;28;21553;-69
2023/09/10 08:58:31;;;;;;;8.65;6.97;;;;;;;23.13;62.06;101193.00;4951532;28;20350;-69
2023/09/10 09:00:59;;;;;;;9.98;6.95;;;;;;;23.26;61.18;101192.56;4950702;28;20727;-69
2023/09/10 09:03:26;;;;;;;11.07;6.90;;;;;;;23.37;61.84;101193.25;4951360;28;20228;-69
2023/09/10 09:05:57;;;;;;;9.30;7.00;;;;;;;23.45;62.70;101192.81;4952862;28;20212;-69
2023/09/10 09:08:30;;;;;;;10.20;6.68;;;;;;;23.59;58.99;101195.41;4950518;28;20284;-68
2023/09/10 09:10:56;;;;;;;8.13;6.70;;;;;;;23.66;61.07;101192.63;4948395;28;20224;-68
2023/09/10 09:13:23;;;;;;;7.82;6.95;;;;;;;23.73;60.87;101185.25;4950960;28;20292;-68
2023/09/10 09:15:50;;;;;;;9.13;6.72;;;;;;;23.83;60.25;101189.78;4949044;28;21363;-69
2023/09/10 09:18:17;;;;;;;12.30;6.80;;;;;;;23.93;58.56;101190.09;4950783;28;20231;-68
2023/09/10 09:20:45;;;;;;;11.50;6.43;;;;;;;24.02;59.33;101182.28;4955753;28;20228;-68
2023/09/10 09:23:19;;;;;;;8.18;6.78;;;;;;;24.11;57.56;101188.75;4951364;28;21172;-69
2023/09/10 09:25:45;;;;;;;9.32;7.25;;;;;;;24.18;57.00;101185.97;4952415;28;20204;-70
2023/09/10 09:28:12;;;;;;;8.23;7.40;;;;;;;24.27;58.53;101188.19;4953178;28;21461;-69
2023/09/10 09:30:39;;;;;;;8.80;6.85;;;;;;;24.35;58.92;101187.69;4952740;28;20609;-69
2023/09/10 09:33:06;;;;;;;7.20;6.50;;;;;;;24.43;57.09;101178.34;4947907;28;21189;-69
2023/09/10 09:35:33;;;;;;;8.50;7.10;;;;;;;24.52;58.56;101186.75;4954393;28;20671;-69
2023/09/10 09:38:05;;;;;;;8.05;6.80;;;;;;;24.63;56.88;101186.63;4938562;28;20590;-70
2023/09/10 09:40:34;;;;;;;7.43;6.40;;;;;;;24.70;57.70;101176.50;4954525;28;20251;-69
2023/09/10 09:43:01;;;;;;;8.20;6.45;;;;;;;24.82;56.63;101177.88;4954684;28;20250;-69
2023/09/10 09:45:27;;;;;;;7.78;6.20;;;;;;;24.89;57.78;101181.25;4953106;28;20718;-69
2023/09/10 09:47:54;;;;;;;7.18;6.45;;;;;;;25.01;54.79;101177.97;4951905;28;20244;-69
2023/09/10 09:50:21;;;;;;;9.40;6.75;;;;;;;25.10;55.39;101180.94;4953126;28;20232;-68
2023/09/10 09:52:51;;;;;;;9.40;7.07;;;;;;;25.16;56.41;101179.31;4956459;28;20209;-68
2023/09/10 09:55:17;;;;;;;7.40;6.55;;;;;;;25.26;56.90;101180.34;4955426;28;20250;-71
2023/09/10 09:57:47;;;;;;;8.10;6.75;;;;;;;25.33;54.32;101180.25;4954219;28;20230;-69
2023/09/10 10:00:15;;;;;;;7.20;6.45;;;;;;;25.41;54.91;101166.19;4954224;28;20970;-69
2023/09/10 10:02:42;;;;;;;11.63;6.97;;;;;;;25.52;54.83;101171.41;4951840;28;20551;-69
2023/09/10 10:05:09;;;;;;;8.15;6.88;;;;;;;25.60;56.66;101172.84;4954693;28;20240;-69
2023/09/10 10:07:36;;;;;;;10.40;6.82;;;;;;;25.67;55.82;101162.66;4953347;28;20216;-69
2023/09/10 10:10:05;;;;;;;8.25;6.38;;;;;;;25.77;52.75;101160.94;4953371;28;20336;-69
2023/09/10 10:12:32;;;;;;;7.28;5.95;;;;;;;25.84;53.71;101163.53;4951721;28;20204;-68
2023/09/10 10:15:00;;;;;;;7.15;6.30;;;;;;;25.94;54.64;101159.84;4954456;28;20212;-69
2023/09/10 10:17:27;;;;;;;13.07;6.03;;;;;;;26.01;52.97;101163.19;4952543;28;21416;-69
2023/09/10 10:19:54;;;;;;;7.15;5.80;;;;;;;26.07;53.23;101169.69;4956309;28;20633;-69
2023/09/10 10:22:22;;;;;;;9.98;6.18;;;;;;;26.15;51.66;101156.78;4952011;28;20770;-69
2023/09/10 10:24:50;;;;;;;9.90;6.07;;;;;;;26.28;51.09;101163.06;4953715;28;20251;-68
2023/09/10 10:27:17;;;;;;;6.53;5.85;;;;;;;26.34;51.83;101164.09;4952866;28;20201;-68
2023/09/10 10:29:44;;;;;;;7.00;5.97;;;;;;;26.41;51.58;101158.56;4952329;28;21490;-69
2023/09/10 10:32:21;;;;;;;7.47;5.90;;;;;;;26.48;51.79;101155.69;4935424;28;20683;-69
2023/09/10 10:34:52;;;;;;;6.25;5.60;;;;;;;26.55;51.05;101150.94;4952427;28;20227;-69
2023/09/10 10:37:24;;;;;;;9.25;5.75;;;;;;;26.64;49.99;101147.63;4933322;28;21356;-70
2023/09/10 10:39:55;;;;;;;7.53;5.50;;;;;;;26.73;46.67;101142.41;4952433;28;20251;-69
2023/09/10 10:42:30;;;;;;;7.75;5.43;;;;;;;26.77;48.41;101143.84;4950537;28;20896;-69
2023/09/10 10:45:00;;;;;;;5.85;4.50;;;;;;;26.88;45.76;101140.91;4950210;28;20228;-70
2023/09/10 10:47:30;;;;;;;7.93;4.85;;;;;;;26.95;46.54;101143.44;4953717;28;20209;-69
2023/09/10 10:49:57;;;;;;;5.68;5.07;;;;;;;27.05;44.25;101139.72;4953295;28;20228;-69
2023/09/10 10:52:30;;;;;;;6.45;5.00;;;;;;;27.12;46.42;101140.31;4947232;28;21249;-69
2023/09/10 10:54:57;;;;;;;7.68;5.13;;;;;;;27.20;43.51;101141.69;4952441;28;20212;-69
2023/09/10 10:57:25;;;;;;;6.57;4.80;;;;;;;27.28;44.95;101136.84;4946786;28;20220;-69
2023/09/10 10:59:51;;;;;;;7.53;5.05;;;;;;;27.34;43.88;101148.75;4950515;28;20224;-69
2023/09/10 11:02:22;;;;;;;5.47;4.97;;;;;;;27.42;43.92;101128.38;4951554;28;20212;-69
2023/09/10 11:05:01;;;;;;;5.70;5.10;;;;;;;27.50;45.14;101140.59;4950455;28;20859;-69
2023/09/10 11:07:29;;;;;;;5.50;4.40;;;;;;;27.56;43.09;101139.63;4949086;28;20297;-69
2023/09/10 11:09:57;;;;;;;5.38;4.80;;;;;;;27.64;43.53;101134.78;4951588;28;20236;-69
2023/09/10 11:12:23;;;;;;;6.60;4.80;;;;;;;27.71;42.00;101124.50;4940577;28;20291;-69
2023/09/10 11:15:12;;;;;;;6.85;5.30;;;;;;;27.79;41.88;101128.59;4952175;28;20236;-69
2023/09/10 11:17:39;;;;;;;7.20;4.90;;;;;;;27.87;41.44;101126.44;4948733;28;20214;-69